Time;durP1;ratioP1;P1;durP2;ratioP2;P2;SDS_P1;SDS_P2;PMS_P1;PMS_P2;Temp;Humidity;BMP_temperature;BMP_pressure;BME280_temperature;BME280_humidity;BME280_pressure;Samples;Min_cycle;Max_cycle;Signal;HPM_P1;HPM_P2
2022/01/05 00:00:36;;;;;;;52.28;36.08;;;205.50;2252.80;;;;;;5041677;28;20062;-75
2022/01/05 00:03:04;;;;;;;56.63;39.25;;;205.40;2252.80;;;;;;5041410;28;20365;-74
2022/01/05 00:05:30;;;;;;;54.40;34.60;;;205.40;2252.80;;;;;;5038804;28;20709;-74
2022/01/05 00:07:56;;;;;;;47.50;34.75;;;205.40;2252.80;;;;;;5039606;28;20034;-75
2022/01/05 00:10:22;;;;;;;55.55;35.78;;;205.40;2252.80;;;;;;5038267;28;20029;-74
2022/01/05 00:12:48;;;;;;;48.85;35.92;;;205.40;2252.80;;;;;;5037901;28;20061;-74
2022/01/05 00:15:14;;;;;;;49.75;34.40;;;205.40;2252.80;;;;;;5035962;28;20074;-74
2022/01/05 00:17:40;;;;;;;51.50;34.92;;;205.40;2252.80;;;;;;5043352;28;20030;-74
2022/01/05 00:20:06;;;;;;;52.60;33.40;;;205.40;2252.80;;;;;;5041439;28;20025;-74
2022/01/05 00:22:32;;;;;;;49.00;33.33;;;205.40;2252.80;;;;;;5038614;28;20388;-74
2022/01/05 00:24:58;;;;;;;51.10;34.03;;;205.40;2252.80;;;;;;5040018;28;20025;-74
2022/01/05 00:27:24;;;;;;;54.65;35.78;;;205.40;2252.80;;;;;;5041324;28;20034;-75
2022/01/05 00:29:49;;;;;;;51.50;35.42;;;205.40;2252.80;;;;;;5042545;28;20032;-74
2022/01/05 00:32:15;;;;;;;54.10;33.08;;;205.40;2252.80;;;;;;5036354;28;20056;-75
2022/01/05 00:34:41;;;;;;;58.75;34.80;;;205.30;2252.80;;;;;;5038915;28;20068;-75
2022/01/05 00:37:07;;;;;;;46.33;31.40;;;205.30;2252.80;;;;;;5038260;28;20025;-74
2022/01/05 00:39:32;;;;;;;51.88;34.70;;;205.40;2252.80;;;;;;5041038;28;20026;-74
2022/01/05 00:41:58;;;;;;;48.63;33.65;;;205.30;2252.80;;;;;;5039938;28;20546;-74
2022/01/05 00:44:24;;;;;;;47.08;32.95;;;205.30;2252.80;;;;;;5042110;28;20396;-74
2022/01/05 00:46:50;;;;;;;50.35;34.33;;;205.30;2252.80;;;;;;5046067;28;20047;-74
2022/01/05 00:49:16;;;;;;;51.20;33.47;;;205.30;2252.80;;;;;;5032528;28;20033;-74
2022/01/05 00:51:42;;;;;;;46.50;33.83;;;205.30;2252.80;;;;;;5025531;28;20083;-74
2022/01/05 00:54:08;;;;;;;52.47;35.78;;;205.30;2252.80;;;;;;5020792;28;20030;-74
2022/01/05 00:56:34;;;;;;;50.67;35.70;;;205.30;2252.80;;;;;;5023847;28;20068;-74
2022/01/05 00:59:00;;;;;;;47.50;32.25;;;205.30;2252.80;;;;;;5043313;28;20033;-74
2022/01/05 01:01:25;;;;;;;50.50;33.30;;;205.30;2252.80;;;;;;5046555;28;20021;-74
2022/01/05 01:03:51;;;;;;;46.10;31.85;;;205.30;2252.80;;;;;;5045190;28;20027;-74
2022/01/05 01:06:17;;;;;;;50.40;32.25;;;205.30;2252.80;;;;;;5043507;28;20417;-75
2022/01/05 01:08:43;;;;;;;64.57;38.08;;;205.30;2252.80;;;;;;5046453;28;20108;-75
2022/01/05 01:11:08;;;;;;;53.03;33.20;;;205.30;2252.80;;;;;;5046576;28;20029;-74
2022/01/05 01:13:34;;;;;;;53.33;35.80;;;205.20;2252.80;;;;;;5043610;28;20025;-74
2022/01/05 01:16:00;;;;;;;58.40;35.38;;;205.20;2252.80;;;;;;5042500;28;20381;-75
2022/01/05 01:18:26;;;;;;;49.42;33.35;;;205.20;2252.80;;;;;;5043011;28;20468;-74
2022/01/05 01:20:52;;;;;;;48.30;33.00;;;205.10;2252.80;;;;;;5045607;28;20108;-74
2022/01/05 01:23:21;;;;;;;46.53;33.80;;;205.10;2252.80;;;;;;5045027;28;20025;-74
2022/01/05 01:25:51;;;;;;;54.17;34.63;;;205.10;2252.80;;;;;;5046718;28;20546;-74
2022/01/05 01:28:17;;;;;;;53.90;34.50;;;205.10;2252.80;;;;;;5054721;28;20048;-75
2022/01/05 01:30:43;;;;;;;56.58;36.15;;;205.10;2252.80;;;;;;5040915;28;20037;-74
2022/01/05 01:33:09;;;;;;;48.10;32.42;;;205.10;2252.80;;;;;;5048259;28;20530;-74
2022/01/05 01:35:35;;;;;;;55.80;33.90;;;205.10;2252.80;;;;;;5040151;28;20052;-74
2022/01/05 01:38:01;;;;;;;48.72;33.53;;;205.10;2252.80;;;;;;5034395;28;20026;-74
2022/01/05 01:40:26;;;;;;;50.10;34.60;;;205.10;2252.80;;;;;;5042463;28;20476;-74
2022/01/05 01:42:52;;;;;;;55.35;35.42;;;205.10;2252.80;;;;;;5044786;28;20059;-74
2022/01/05 01:45:19;;;;;;;50.55;35.58;;;205.10;2252.80;;;;;;5044935;28;20028;-74
2022/01/05 01:47:46;;;;;;;42.88;31.90;;;205.10;2252.80;;;;;;5046233;28;20559;-74
2022/01/05 01:50:12;;;;;;;49.50;33.78;;;205.10;2252.80;;;;;;5041293;28;20035;-74
2022/01/05 01:52:38;;;;;;;47.75;32.13;;;205.10;2252.80;;;;;;5043357;28;20033;-74
2022/01/05 01:55:05;;;;;;;51.25;34.65;;;205.10;2252.80;;;;;;5034510;28;20025;-74
2022/01/05 01:57:34;;;;;;;50.47;33.92;;;205.00;2252.80;;;;;;5036169;28;20031;-74
2022/01/05 02:00:01;;;;;;;58.03;35.75;;;205.00;2252.80;;;;;;5034116;28;20025;-74
2022/01/05 02:02:27;;;;;;;53.47;33.60;;;205.00;2252.80;;;;;;5032832;28;20030;-74
2022/01/05 02:04:53;;;;;;;57.67;36.50;;;204.90;2252.80;;;;;;5033194;28;20056;-74
2022/01/05 02:07:18;;;;;;;54.88;35.53;;;204.90;2252.80;;;;;;5032728;28;20496;-74
2022/01/05 02:09:44;;;;;;;56.15;35.85;;;204.90;2252.80;;;;;;5039757;28;20049;-74
2022/01/05 02:12:10;;;;;;;56.25;34.25;;;204.90;2252.80;;;;;;5049633;28;20037;-74
2022/01/05 02:14:37;;;;;;;47.83;34.38;;;204.90;2252.80;;;;;;5039221;28;20464;-75
2022/01/05 02:17:08;;;;;;;47.65;34.00;;;204.80;2252.80;;;;;;5049315;28;20104;-75
2022/01/05 02:19:34;;;;;;;47.53;32.97;;;204.80;2252.80;;;;;;5047050;28;20018;-75
2022/01/05 02:22:00;;;;;;;46.47;32.40;;;204.80;2252.80;;;;;;5048938;28;20703;-74
2022/01/05 02:24:25;;;;;;;55.92;36.00;;;204.80;2252.80;;;;;;5040331;28;20072;-75
2022/01/05 02:26:51;;;;;;;51.28;31.88;;;204.80;2252.80;;;;;;5034384;28;20036;-74
2022/01/05 02:29:18;;;;;;;56.17;37.17;;;204.80;2252.80;;;;;;5039461;28;20029;-75
2022/01/05 02:31:43;;;;;;;56.15;34.42;;;180.10;2252.80;;;;;;5032384;28;20033;-75
2022/01/05 02:34:09;;;;;;;55.05;34.30;;;204.80;2252.80;;;;;;5049071;28;20112;-75
2022/01/05 02:36:35;;;;;;;47.97;34.65;;;180.10;2252.80;;;;;;5036886;28;20384;-75
2022/01/05 02:39:01;;;;;;;50.25;33.58;;;204.80;2252.80;;;;;;5037278;28;20038;-74
2022/01/05 02:41:27;;;;;;;53.22;34.28;;;180.10;2252.80;;;;;;5042891;28;20020;-74
2022/01/05 02:43:52;;;;;;;48.92;32.60;;;180.10;2252.80;;;;;;5052781;28;20092;-74
2022/01/05 02:46:22;;;;;;;47.88;32.55;;;204.80;2252.80;;;;;;5046077;28;20092;-75
2022/01/05 02:48:52;;;;;;;54.20;34.83;;;180.10;2252.80;;;;;;5032358;28;20068;-74
2022/01/05 02:51:18;;;;;;;54.08;35.00;;;204.80;2252.80;;;;;;5041670;28;20395;-74
2022/01/05 02:53:45;;;;;;;50.72;31.92;;;204.80;2252.80;;;;;;5048985;28;20036;-74
2022/01/05 02:56:11;;;;;;;49.97;32.67;;;180.10;2252.80;;;;;;5033599;28;20028;-74
2022/01/05 02:58:36;;;;;;;43.55;31.17;;;204.80;2252.80;;;;;;5031889;28;20028;-74
2022/01/05 03:01:03;;;;;;;52.22;31.85;;;204.80;2252.80;;;;;;5033369;28;20022;-74
2022/01/05 03:03:29;;;;;;;45.70;30.17;;;180.10;2252.80;;;;;;5031850;28;20064;-74
2022/01/05 03:05:54;;;;;;;43.08;30.95;;;204.80;2252.80;;;;;;5032580;28;20049;-75
2022/01/05 03:08:20;;;;;;;42.78;29.77;;;204.80;2252.80;;;;;;5033341;28;20030;-75
2022/01/05 03:10:46;;;;;;;40.60;31.38;;;180.10;2252.80;;;;;;5031952;28;20037;-75
2022/01/05 03:13:12;;;;;;;48.92;31.67;;;180.10;2252.80;;;;;;5033198;28;20488;-75
2022/01/05 03:15:38;;;;;;;44.72;31.73;;;180.10;2252.80;;;;;;5031767;28;20128;-75
2022/01/05 03:18:05;;;;;;;47.63;31.17;;;204.80;2252.80;;;;;;5033531;28;20030;-75
2022/01/05 03:20:31;;;;;;;46.38;30.50;;;204.80;2252.80;;;;;;5031589;28;20029;-75
2022/01/05 03:22:58;;;;;;;46.05;30.73;;;180.10;2252.80;;;;;;5031856;28;20052;-75
2022/01/05 03:25:25;;;;;;;44.17;29.88;;;180.10;2252.80;;;;;;5031471;28;20032;-75
2022/01/05 03:27:52;;;;;;;45.60;30.65;;;180.10;2252.80;;;;;;5031984;28;20112;-75
2022/01/05 03:30:23;;;;;;;43.40;28.58;;;180.10;2252.80;;;;;;5032880;28;20865;-74
2022/01/05 03:35:21;;;;;;;39.30;27.73;;;204.80;2252.80;;;;;;5032967;28;20056;-75
2022/01/05 03:37:47;;;;;;;36.88;26.35;;;204.80;2252.80;;;;;;5031351;28;20463;-75
2022/01/05 03:40:12;;;;;;;41.88;27.52;;;204.80;2252.80;;;;;;5032972;28;20469;-75
2022/01/05 03:42:38;;;;;;;40.60;26.90;;;204.80;2252.80;;;;;;5032253;28;20048;-74
2022/01/05 03:45:04;;;;;;;41.22;27.08;;;204.80;2252.80;;;;;;5031627;28;20389;-75
2022/01/05 03:47:30;;;;;;;39.33;26.45;;;204.80;2252.80;;;;;;5032500;28;20418;-75
2022/01/05 03:49:56;;;;;;;44.60;26.05;;;204.80;2252.80;;;;;;5031263;28;20104;-74
2022/01/05 03:52:21;;;;;;;35.80;23.90;;;204.80;2252.80;;;;;;5031247;28;20037;-75
2022/01/05 03:54:47;;;;;;;37.17;22.13;;;204.80;2252.80;;;;;;5031009;28;20116;-75
2022/01/05 03:57:13;;;;;;;42.47;24.88;;;204.90;2252.80;;;;;;5032682;28;20427;-75
2022/01/05 03:59:38;;;;;;;35.35;21.55;;;204.90;2252.80;;;;;;5030886;28;20819;-75
2022/01/05 04:02:04;;;;;;;33.03;21.73;;;204.90;2252.80;;;;;;5032463;28;20021;-75
2022/01/05 04:04:30;;;;;;;41.95;23.38;;;205.00;2252.80;;;;;;5026756;28;20105;-75
2022/01/05 04:06:56;;;;;;;28.73;21.83;;;205.00;2252.80;;;;;;5012507;28;20053;-75
2022/01/05 04:09:22;;;;;;;30.23;22.15;;;205.00;2252.80;;;;;;5011327;28;20045;-75
2022/01/05 04:11:48;;;;;;;37.33;22.45;;;205.00;2252.80;;;;;;5031877;28;20025;-75
2022/01/05 04:14:13;;;;;;;36.05;21.92;;;205.00;2252.80;;;;;;5030601;28;20034;-75
2022/01/05 04:16:39;;;;;;;33.47;21.17;;;205.10;2252.80;;;;;;5032474;28;20032;-75
2022/01/05 04:19:05;;;;;;;30.92;21.55;;;205.10;2252.80;;;;;;5032582;28;20071;-76
2022/01/05 04:21:30;;;;;;;35.28;23.27;;;205.00;2252.80;;;;;;5032014;28;20483;-76
2022/01/05 04:23:56;;;;;;;32.50;23.05;;;205.00;2252.80;;;;;;5030873;28;20037;-76
2022/01/05 04:26:22;;;;;;;34.45;21.92;;;205.00;2252.80;;;;;;5031894;28;20028;-76
2022/01/05 04:28:47;;;;;;;34.17;21.38;;;205.00;2252.80;;;;;;5030976;28;20509;-75
2022/01/05 04:31:13;;;;;;;33.38;21.58;;;205.00;2252.80;;;;;;5031732;28;20135;-76
2022/01/05 04:33:39;;;;;;;30.00;20.35;;;205.00;2252.80;;;;;;5032133;28;20026;-76
2022/01/05 04:36:05;;;;;;;33.40;21.10;;;205.00;2252.80;;;;;;5030414;28;20029;-75
2022/01/05 04:38:30;;;;;;;31.58;21.45;;;205.00;2252.80;;;;;;5030821;28;20033;-76
2022/01/05 04:40:56;;;;;;;30.10;20.38;;;205.00;2252.80;;;;;;5031961;28;20053;-74
2022/01/05 04:43:22;;;;;;;30.98;20.23;;;205.00;2252.80;;;;;;5050301;28;20033;-74
2022/01/05 04:45:49;;;;;;;32.42;21.52;;;205.00;2252.80;;;;;;5051496;28;20353;-74
2022/01/05 04:48:14;;;;;;;36.67;21.92;;;205.00;2252.80;;;;;;5030452;28;20087;-74
2022/01/05 04:50:40;;;;;;;32.17;23.63;;;205.00;2252.80;;;;;;5030727;28;20027;-74
2022/01/05 04:53:07;;;;;;;32.53;23.73;;;205.00;2252.80;;;;;;5030217;28;20099;-74
2022/01/05 04:55:33;;;;;;;35.10;22.27;;;205.00;2252.80;;;;;;5030528;28;20026;-74
2022/01/05 04:57:59;;;;;;;33.55;21.00;;;205.00;2252.80;;;;;;5031273;28;20025;-74
2022/01/05 05:00:24;;;;;;;39.22;24.92;;;204.90;2252.80;;;;;;5030753;28;20040;-75
2022/01/05 05:02:50;;;;;;;33.25;23.05;;;204.90;2252.80;;;;;;5037320;28;20029;-74
2022/01/05 05:05:16;;;;;;;31.23;21.48;;;204.90;2252.80;;;;;;5041470;28;20106;-74
2022/01/05 05:07:42;;;;;;;27.15;20.27;;;204.90;2252.80;;;;;;5036602;28;20099;-74
2022/01/05 05:10:08;;;;;;;33.17;20.42;;;204.80;2252.80;;;;;;5031645;28;20025;-76
2022/01/05 05:12:34;;;;;;;28.95;19.05;;;204.80;2252.80;;;;;;5030504;28;20519;-74
2022/01/05 05:15:00;;;;;;;27.77;20.70;;;204.80;2252.80;;;;;;5030004;28;20075;-75
2022/01/05 05:17:25;;;;;;;34.63;21.50;;;204.80;2252.80;;;;;;5037618;28;20384;-74
2022/01/05 05:19:51;;;;;;;30.75;21.50;;;204.80;2252.80;;;;;;5051345;28;20368;-74
2022/01/05 05:22:17;;;;;;;30.17;20.23;;;204.80;2252.80;;;;;;5050267;28;20048;-74
2022/01/05 05:24:42;;;;;;;29.67;20.83;;;204.90;2252.80;;;;;;5050302;28;20032;-75
2022/01/05 05:27:08;;;;;;;29.17;19.38;;;204.90;2252.80;;;;;;5051560;28;20036;-74
2022/01/05 05:29:34;;;;;;;33.15;20.67;;;204.90;2252.80;;;;;;5036767;28;20072;-74
2022/01/05 05:32:00;;;;;;;29.02;19.50;;;204.80;2252.80;;;;;;5034890;28;20484;-74
2022/01/05 05:34:25;;;;;;;29.38;19.45;;;204.80;2252.80;;;;;;5034704;28;20029;-74
2022/01/05 05:36:51;;;;;;;32.78;20.27;;;204.80;2252.80;;;;;;5035080;28;20029;-74
2022/01/05 05:39:17;;;;;;;29.63;21.63;;;180.10;2252.80;;;;;;5034602;28;20025;-74
2022/01/05 05:41:43;;;;;;;30.50;18.67;;;180.10;2252.80;;;;;;5034973;28;20029;-74
2022/01/05 05:44:09;;;;;;;29.63;19.85;;;204.80;2252.80;;;;;;5034471;28;20107;-74
2022/01/05 05:46:34;;;;;;;31.45;20.45;;;204.80;2252.80;;;;;;5034553;28;20088;-74
2022/01/05 05:49:00;;;;;;;26.52;19.80;;;204.80;2252.80;;;;;;5035151;28;20430;-74
2022/01/05 05:51:26;;;;;;;27.75;18.73;;;204.90;2252.80;;;;;;5034439;28;20032;-74
2022/01/05 05:53:52;;;;;;;31.52;19.65;;;204.90;2252.80;;;;;;5033876;28;20034;-74
2022/01/05 05:56:18;;;;;;;28.27;18.95;;;204.90;2252.80;;;;;;5034357;28;20080;-74
2022/01/05 05:58:43;;;;;;;31.95;19.50;;;204.90;2252.80;;;;;;5033322;28;20196;-74
2022/01/05 06:01:09;;;;;;;29.60;19.55;;;205.00;2252.80;;;;;;5030382;28;20373;-74
2022/01/05 06:03:35;;;;;;;30.95;20.05;;;205.00;2252.80;;;;;;5013572;28;20029;-74
2022/01/05 06:06:01;;;;;;;28.08;19.23;;;205.00;2252.80;;;;;;5013368;28;20037;-74
2022/01/05 06:08:26;;;;;;;31.42;17.98;;;204.90;2252.80;;;;;;5013632;28;20072;-74
2022/01/05 06:10:52;;;;;;;32.45;18.50;;;205.00;2252.80;;;;;;5014439;28;20030;-74
2022/01/05 06:13:18;;;;;;;29.63;19.23;;;205.00;2252.80;;;;;;5012989;28;20033;-74
2022/01/05 06:15:44;;;;;;;30.08;19.35;;;205.00;2252.80;;;;;;5014663;28;20069;-74
2022/01/05 06:18:09;;;;;;;30.95;17.98;;;205.00;2252.80;;;;;;5013660;28;20045;-74
2022/01/05 06:20:35;;;;;;;25.45;19.45;;;205.00;2252.80;;;;;;5038315;28;20041;-74
2022/01/05 06:23:01;;;;;;;32.72;20.25;;;205.00;2252.80;;;;;;5040347;28;20024;-74
2022/01/05 06:25:27;;;;;;;28.35;19.05;;;205.00;2252.80;;;;;;5041446;28;20488;-74
2022/01/05 06:27:53;;;;;;;27.55;18.20;;;205.00;2252.80;;;;;;5044712;28;20509;-74
2022/01/05 06:30:19;;;;;;;24.67;18.35;;;205.00;2252.80;;;;;;5040910;28;20065;-74
2022/01/05 06:32:46;;;;;;;28.05;18.42;;;205.00;2252.80;;;;;;5042708;28;20033;-74
2022/01/05 06:35:13;;;;;;;31.73;16.50;;;205.00;2252.80;;;;;;5042196;28;20059;-74
2022/01/05 06:37:39;;;;;;;27.50;17.77;;;205.10;2252.80;;;;;;5043052;28;20056;-74
2022/01/05 06:40:06;;;;;;;26.98;16.35;;;205.10;2252.80;;;;;;5042997;28;20372;-74
2022/01/05 06:42:31;;;;;;;30.55;19.05;;;204.90;2252.80;;;;;;5038535;28;20022;-74
2022/01/05 06:44:57;;;;;;;28.35;17.73;;;205.10;2252.80;;;;;;5032306;28;20397;-74
2022/01/05 06:47:23;;;;;;;26.70;16.33;;;205.20;2252.80;;;;;;5033256;28;20061;-74
2022/01/05 06:49:48;;;;;;;22.92;16.17;;;205.20;2252.80;;;;;;5038529;28;20036;-74
2022/01/05 06:52:14;;;;;;;23.40;15.23;;;205.30;2252.80;;;;;;5038387;28;20030;-74
2022/01/05 06:54:41;;;;;;;22.80;16.35;;;205.30;2252.80;;;;;;5037262;28;20029;-74
2022/01/05 06:57:08;;;;;;;26.10;17.35;;;205.30;2252.80;;;;;;5033604;28;20030;-74
2022/01/05 06:59:35;;;;;;;23.73;15.55;;;205.30;2252.80;;;;;;5032022;28;20021;-74
2022/01/05 07:02:01;;;;;;;25.45;16.55;;;205.40;2252.80;;;;;;5035615;28;20013;-74
2022/01/05 07:04:27;;;;;;;23.83;15.00;;;205.30;2252.80;;;;;;5039356;28;20072;-74
2022/01/05 07:06:52;;;;;;;22.15;14.20;;;205.60;2252.80;;;;;;5035516;28;20045;-74
2022/01/05 07:09:18;;;;;;;20.92;15.38;;;205.60;2252.80;;;;;;5052183;28;20079;-74
2022/01/05 07:11:45;;;;;;;27.23;15.50;;;205.70;2252.80;;;;;;5045186;28;20048;-74
2022/01/05 07:14:11;;;;;;;22.83;15.60;;;230.40;2252.80;;;;;;5053257;28;20369;-74
2022/01/05 07:16:37;;;;;;;22.77;14.80;;;230.40;2252.80;;;;;;5042860;28;20086;-74
2022/01/05 07:19:03;;;;;;;24.30;14.70;;;230.60;2252.80;;;;;;5040829;28;20424;-75
2022/01/05 07:21:33;;;;;;;25.55;13.73;;;230.70;2252.80;;;;;;5041225;28;20032;-74
2022/01/05 07:24:00;;;;;;;23.17;14.88;;;230.80;2252.80;;;;;;5041836;28;20017;-74
2022/01/05 07:26:27;;;;;;;17.10;13.10;;;230.80;2252.80;;;;;;5042396;28;20034;-74
2022/01/05 07:28:53;;;;;;;22.77;14.52;;;230.90;2252.80;;;;;;5021505;28;20029;-74
2022/01/05 07:31:19;;;;;;;21.13;13.38;;;231.00;2252.80;;;;;;5041839;28;20555;-75
2022/01/05 07:33:45;;;;;;;19.13;13.18;;;231.10;2252.80;;;;;;5041142;28;20158;-74
2022/01/05 07:36:11;;;;;;;24.58;16.00;;;231.20;2252.80;;;;;;5039375;28;20026;-74
2022/01/05 07:38:37;;;;;;;22.05;14.15;;;231.30;2252.80;;;;;;5042660;28;20037;-74
2022/01/05 07:41:03;;;;;;;23.77;14.10;;;256.00;2252.80;;;;;;5036768;28;20529;-74
2022/01/05 07:43:29;;;;;;;21.90;13.45;;;256.10;2252.80;;;;;;5032354;28;20017;-75
2022/01/05 07:45:55;;;;;;;19.65;13.60;;;256.30;2252.80;;;;;;5032895;28;20021;-74
2022/01/05 07:48:21;;;;;;;19.50;12.93;;;256.40;2252.80;;;;;;5032262;28;20029;-74
2022/01/05 07:50:46;;;;;;;17.20;11.18;;;256.60;2252.80;;;;;;5032298;28;20025;-74
2022/01/05 07:53:12;;;;;;;20.65;13.93;;;256.60;2252.80;;;;;;5032218;28;20025;-74
2022/01/05 07:55:38;;;;;;;22.52;15.18;;;256.80;2252.80;;;;;;5032088;28;20030;-74
2022/01/05 07:58:04;;;;;;;22.73;13.02;;;256.90;2252.80;;;;;;5040427;28;20026;-74
2022/01/05 08:00:30;;;;;;;19.67;14.02;;;281.70;2278.40;;;;;;5037312;28;20055;-74
2022/01/05 08:02:56;;;;;;;19.50;12.93;;;281.90;2278.40;;;;;;5048838;28;20029;-74
2022/01/05 08:05:22;;;;;;;25.92;15.27;;;282.00;2278.40;;;;;;5041825;28;20025;-74
2022/01/05 08:07:48;;;;;;;16.40;12.48;;;282.20;2278.40;;;;;;5051346;28;20763;-74
2022/01/05 08:10:14;;;;;;;22.48;15.80;;;282.30;2278.40;;;;;;5032019;28;20025;-74
2022/01/05 08:12:41;;;;;;;21.23;15.35;;;282.40;2278.40;;;;;;5039043;28;20170;-74
2022/01/05 08:15:11;;;;;;;19.50;14.48;;;307.20;2304.00;;;;;;5039851;28;20580;-74
2022/01/05 08:17:38;;;;;;;18.58;14.68;;;307.20;2304.00;;;;;;5041387;28;20025;-74
2022/01/05 08:20:06;;;;;;;19.00;13.93;;;307.30;2304.00;;;;;;5037587;28;20483;-74
2022/01/05 08:22:32;;;;;;;21.63;15.23;;;307.30;2304.00;;;;;;5043422;28;20022;-74
2022/01/05 08:24:58;;;;;;;18.52;13.50;;;307.40;2304.00;;;;;;5042492;28;20379;-74
2022/01/05 08:27:23;;;;;;;17.85;12.38;;;307.40;2304.00;;;;;;5041923;28;20033;-74
2022/01/05 08:29:49;;;;;;;22.23;12.80;;;307.40;2304.00;;;;;;5040497;28;20037;-75
2022/01/05 08:32:15;;;;;;;18.25;12.25;;;307.40;2304.00;;;;;;5037697;28;20025;-75
2022/01/05 08:34:41;;;;;;;16.58;13.02;;;307.50;2304.00;;;;;;5042468;28;20502;-74
2022/01/05 08:37:06;;;;;;;18.77;14.18;;;307.60;2304.00;;;;;;5051606;28;20113;-75
2022/01/05 08:39:32;;;;;;;18.70;13.93;;;307.70;2304.00;;;;;;5037552;28;20107;-74
2022/01/05 08:41:58;;;;;;;24.73;14.00;;;307.80;2304.00;;;;;;5035605;28;20481;-75
2022/01/05 08:44:24;;;;;;;26.65;16.23;;;307.90;2304.00;;;;;;5032907;28;20049;-74
2022/01/05 08:46:49;;;;;;;25.27;16.02;;;308.10;2304.00;;;;;;5032721;28;20021;-74
2022/01/05 08:49:15;;;;;;;26.02;15.52;;;332.80;2329.60;;;;;;5040004;28;20039;-74
2022/01/05 08:51:42;;;;;;;22.92;15.68;;;333.00;2329.60;;;;;;5032844;28;20045;-74
2022/01/05 08:54:07;;;;;;;23.75;14.13;;;333.10;2329.60;;;;;;5022554;28;20543;-75
2022/01/05 08:56:33;;;;;;;43.10;14.95;;;333.20;2329.60;;;;;;5018691;28;20037;-75
2022/01/05 08:58:59;;;;;;;21.80;12.70;;;333.30;2329.60;;;;;;5022640;28;20036;-75
2022/01/05 09:01:25;;;;;;;27.30;15.02;;;333.30;2329.60;;;;;;5026146;28;20079;-75
2022/01/05 09:03:52;;;;;;;28.92;16.10;;;333.50;2329.60;;;;;;5041462;28;20037;-75
2022/01/05 09:06:19;;;;;;;21.38;13.27;;;333.60;2329.60;;;;;;5044730;28;20053;-74
2022/01/05 09:08:44;;;;;;;18.48;13.00;;;333.50;2329.60;;;;;;5042454;28;20036;-74
2022/01/05 09:11:10;;;;;;;16.55;11.98;;;358.40;2329.60;;;;;;5047132;28;20029;-74
2022/01/05 09:13:36;;;;;;;16.20;11.85;;;358.50;2329.60;;;;;;5041968;28;20029;-74
2022/01/05 09:16:03;;;;;;;16.48;11.02;;;358.70;2329.60;;;;;;5045463;28;20068;-74
2022/01/05 09:18:29;;;;;;;17.45;10.32;;;359.00;2329.60;;;;;;5043600;28;20052;-74
2022/01/05 09:20:55;;;;;;;18.90;11.80;;;359.00;2329.60;;;;;;5045957;28;20032;-74
2022/01/05 09:23:20;;;;;;;15.85;11.27;;;359.20;2329.60;;;;;;5046276;28;20029;-74
2022/01/05 09:25:46;;;;;;;15.93;11.57;;;359.30;2329.60;;;;;;5042451;28;20021;-74
2022/01/05 09:28:12;;;;;;;19.30;12.13;;;384.40;2329.60;;;;;;5044097;28;20048;-74
2022/01/05 09:30:38;;;;;;;16.95;12.55;;;384.80;2329.60;;;;;;5041533;28;20036;-74
2022/01/05 09:33:04;;;;;;;13.85;11.57;;;384.90;2329.60;;;;;;5043209;28;20400;-74
2022/01/05 09:35:32;;;;;;;17.58;11.70;;;384.90;2329.60;;;;;;5043422;28;20030;-75
2022/01/05 09:43:08;;;;;;;21.80;13.73;;;384.70;2329.60;;;;;;5045641;28;20025;-74
2022/01/05 09:45:36;;;;;;;17.15;12.15;;;384.70;2329.60;;;;;;5050952;28;20052;-74
2022/01/05 09:48:14;;;;;;;18.85;10.40;;;384.40;2329.60;;;;;;5038282;28;20450;-75
2022/01/05 09:50:48;;;;;;;13.18;10.18;;;384.30;2329.60;;;;;;5041525;28;20043;-75
2022/01/05 09:53:14;;;;;;;19.55;12.88;;;384.30;2329.60;;;;;;5046541;28;20022;-74
2022/01/05 09:55:40;;;;;;;15.43;11.27;;;384.60;2329.60;;;;;;5046834;28;20560;-74
2022/01/05 09:58:06;;;;;;;18.38;12.05;;;410.30;2355.20;;;;;;5036791;28;20036;-75
2022/01/05 10:00:32;;;;;;;17.42;12.20;;;435.20;2355.20;;;;;;5041416;28;20021;-75
2022/01/05 10:02:58;;;;;;;17.42;12.52;;;435.50;2355.20;;;;;;5045104;28;20028;-75
2022/01/05 10:05:24;;;;;;;16.63;12.55;;;435.50;2355.20;;;;;;5039298;28;20045;-75
2022/01/05 10:07:50;;;;;;;20.77;12.50;;;435.20;2355.20;;;;;;5041833;28;20086;-76
2022/01/05 10:10:16;;;;;;;19.17;12.93;;;410.20;2355.20;;;;;;5043473;28;20112;-75
2022/01/05 10:12:42;;;;;;;16.33;11.57;;;410.30;2355.20;;;;;;5043661;28;20065;-75
2022/01/05 10:15:08;;;;;;;18.25;12.75;;;410.10;2355.20;;;;;;5039248;28;20028;-76
2022/01/05 10:17:36;;;;;;;16.08;11.68;;;410.20;2355.20;;;;;;5022366;28;20029;-76
2022/01/05 10:20:10;;;;;;;16.38;11.88;;;410.40;2355.20;;;;;;5034080;28;20032;-76
2022/01/05 10:22:45;;;;;;;25.92;14.43;;;410.10;2355.20;;;;;;5037062;28;20021;-76
2022/01/05 10:25:18;;;;;;;16.85;11.93;;;410.50;2355.20;;;;;;5034764;28;20045;-76
2022/01/05 10:28:01;;;;;;;16.25;11.52;;;410.20;2355.20;;;;;;5032900;28;20029;-76
2022/01/05 10:30:43;;;;;;;20.42;13.25;;;410.10;2355.20;;;;;;5033814;28;20116;-76
2022/01/05 10:33:09;;;;;;;18.90;11.90;;;410.20;2355.20;;;;;;5033558;28;20030;-76
2022/01/05 10:35:37;;;;;;;16.65;12.57;;;410.30;2355.20;;;;;;5033983;28;20029;-76
2022/01/05 10:38:08;;;;;;;18.80;13.70;;;410.20;2355.20;;;;;;5038273;28;20047;-76
2022/01/05 10:40:38;;;;;;;17.48;11.88;;;410.20;2355.20;;;;;;5023429;28;20528;-75
2022/01/05 10:43:12;;;;;;;21.70;12.30;;;410.10;2355.20;;;;;;5035167;28;20104;-75
2022/01/05 10:45:41;;;;;;;15.52;12.60;;;410.20;2355.20;;;;;;5037261;28;20022;-75
2022/01/05 10:48:15;;;;;;;16.50;11.35;;;410.30;2355.20;;;;;;5039307;28;20064;-75
2022/01/05 10:50:41;;;;;;;16.35;11.75;;;410.30;2355.20;;;;;;5038367;28;20025;-75
2022/01/05 10:53:10;;;;;;;18.30;11.82;;;410.10;2355.20;;;;;;5049746;28;20100;-75
2022/01/05 10:55:44;;;;;;;15.00;11.00;;;409.80;2355.20;;;;;;5034922;28;20048;-75
2022/01/05 10:58:15;;;;;;;21.08;13.38;;;409.60;2355.20;;;;;;5032906;28;20030;-75
2022/01/05 11:00:52;;;;;;;25.30;15.60;;;384.90;2329.60;;;;;;5042509;28;20026;-75
2022/01/05 11:03:27;;;;;;;19.00;13.13;;;384.80;2329.60;;;;;;5044237;28;20021;-75
2022/01/05 11:06:15;;;;;;;17.30;12.38;;;384.80;2329.60;;;;;;5036017;28;20033;-75
2022/01/05 11:08:54;;;;;;;18.65;12.52;;;384.80;2329.60;;;;;;5032795;28;20099;-75
2022/01/05 11:11:43;;;;;;;20.98;13.65;;;384.90;2329.60;;;;;;5037119;28;20052;-75
2022/01/05 11:14:14;;;;;;;22.17;14.32;;;409.80;2355.20;;;;;;5033388;28;20472;-75
2022/01/05 11:16:53;;;;;;;25.48;17.45;;;410.50;2355.20;;;;;;5029326;28;20020;-75
2022/01/05 11:19:31;;;;;;;18.45;13.02;;;460.80;2380.80;;;;;;5020683;28;20379;-77
2022/01/05 11:22:06;;;;;;;18.75;12.77;;;461.20;2380.80;;;;;;5027198;28;20033;-76
2022/01/05 11:24:52;;;;;;;21.75;14.98;;;461.50;2380.80;;;;;;5030626;28;20033;-77
2022/01/05 11:27:20;;;;;;;15.95;12.57;;;461.70;2380.80;;;;;;5028983;28;20035;-77
2022/01/05 11:29:47;;;;;;;18.30;12.93;;;486.60;2380.80;;;;;;5041380;28;20051;-77
2022/01/05 11:32:15;;;;;;;22.90;12.88;;;461.50;2380.80;;;;;;5035898;28;20075;-77
2022/01/05 11:34:42;;;;;;;24.25;13.38;;;461.70;2380.80;;;;;;5052056;28;20021;-77
2022/01/05 11:37:09;;;;;;;17.15;11.45;;;461.40;2380.80;;;;;;5037303;28;20024;-76
2022/01/05 11:39:51;;;;;;;19.77;13.20;;;461.20;2380.80;;;;;;5041157;28;20112;-76
2022/01/05 11:42:28;;;;;;;20.05;12.48;;;461.10;2380.80;;;;;;5042330;28;20423;-75
2022/01/05 11:44:54;;;;;;;21.77;13.05;;;435.90;2355.20;;;;;;5040684;28;20037;-75
2022/01/05 11:47:23;;;;;;;21.52;13.75;;;435.90;2355.20;;;;;;5042006;28;20029;-75
2022/01/05 11:49:50;;;;;;;15.82;11.50;;;435.70;2355.20;;;;;;5035992;28;20097;-75
2022/01/05 11:52:16;;;;;;;19.20;13.25;;;435.50;2355.20;;;;;;5042238;28;20025;-75
2022/01/05 11:55:01;;;;;;;22.60;12.77;;;435.50;2355.20;;;;;;5032693;28;20025;-76
2022/01/05 11:57:27;;;;;;;16.42;12.75;;;435.50;2355.20;;;;;;5036860;28;20056;-76
2022/01/05 12:00:16;;;;;;;20.55;15.05;;;461.10;2380.80;;;;;;5022453;28;20046;-76
2022/01/05 12:02:42;;;;;;;21.55;13.77;;;486.50;2380.80;;;;;;5025323;28;20022;-76
2022/01/05 12:05:08;;;;;;;22.38;13.18;;;486.60;2380.80;;;;;;5049000;28;20050;-76